Terminal Aerodrome Forecast
Issued by NWS Cleveland, OH

Home | Current Version | Previous Version | Graphics & Text | Print | Product List | Glossary On
Versions: 1 2 3 4 5 6 7 8 9 10 11 12 13 14 15 16 17 18 19 20 21 22 23 24 25 26 27
000
FTUS41 KCLE 151100
TAFCAK
TAF
KCAK 151139Z 1512/1612 18005KT 4SM BR OVC045
      TEMPO 1512/1515 6SM BR SCT050
     FM151500 14005KT P6SM SCT050
     FM160600 12007KT 5SM -RA BR BKN040=

USA.gov is the U.S. government's official web portal to all federal, state and local government web resources and services.